Monday, December 18, 2017, 3:33 PM EST
Back to Local

KORH, Worcester Regional Airport

Location: Worcester, MA, United States Lat: 42.267
Local Time: 3:33 PM EST (20:33 GMT) Lon: -71.867
Time Zone: US/Eastern Elev: 1010 ft

Show me the last for .
Show Decoded

2017-12-18 14:54 METAR KORH 181954Z 21006KT 10SM OVC006 00/M04 A2993 RMK AO2 SLP151 T00001039 =
2017-12-18 14:05 METAR KORH 181905Z 20007KT 10SM OVC009 M01/M05 A2994 RMK AO2 T10061050 =
2017-12-18 13:54 METAR KORH 181854Z 20006KT 10SM OVC010 M01/M06 A2994 RMK AO2 CIG 008V011 SLP154
                 T10061056 =
2017-12-18 12:54 METAR KORH 181754Z 21006KT 10SM OVC010 M01/M07 A2998 RMK AO2 SLP168 T10111067
                 11011 21061 56030 =
2017-12-18 11:54 METAR KORH 181654Z 22007KT 10SM OVC012 M02/M08 A3001 RMK AO2 SLP177 T10221083 =
2017-12-18 11:41 METAR KORH 181641Z 21004KT 10SM OVC014 M02/M09 A3001 RMK AO2 T10221089 =
2017-12-18 10:54 METAR KORH 181554Z 16005KT 10SM BKN015 OVC050 M03/M10 A3003 RMK AO2 SLP185
                 T10331100 =
2017-12-18 10:33 METAR KORH 181533Z 16004KT 10SM BKN016 OVC050 M04/M11 A3005 RMK AO2 T10391111 =
2017-12-18 10:14 METAR KORH 181514Z 17005KT 10SM OVC014 M04/M11 A3006 RMK AO2 T10391111 =
2017-12-18 09:54 METAR KORH 181454Z 18004KT 10SM OVC015 M04/M11 A3008 RMK AO2 SLP201 T10441111
                 58015 =
2017-12-18 08:54 METAR KORH 181354Z 19003KT 10SM OVC015 M06/M13 A3010 RMK AO2 SLP208 T10561128 =
2017-12-18 08:44 METAR KORH 181344Z 00000KT 10SM OVC015 M06/M13 A3010 RMK AO2 T10561128 =
2017-12-18 07:54 METAR KORH 181254Z 17003KT 10SM OVC013 M06/M13 A3011 RMK AO2 SLP212 T10611128 =
2017-12-18 06:54 METAR KORH 181154Z 00000KT 10SM OVC014 M06/M13 A3012 RMK AO2 SLP216 60000
                 T10611133 11061 21078 55005 =
2017-12-18 06:22 METAR KORH 181122Z 17003KT 10SM OVC014 M06/M14 A3011 RMK AO2 T10611139 =
2017-12-18 05:54 METAR KORH 181054Z 18005KT 10SM OVC015 M07/M14 A3012 RMK AO2 SLP215 T10671139 =
2017-12-18 04:54 METAR KORH 180954Z AUTO 15004KT 10SM OVC017 M07/M13 A3012 RMK AO2 SNB21E47
                 SLP217 P0000 T10671133 =
2017-12-18 04:42 METAR KORH 180942Z AUTO 14003KT 9SM -SN BKN018 OVC042 M07/M13 A3012 RMK AO2
                 SNB21 P0000 T10671133 =
2017-12-18 03:54 METAR KORH 180854Z AUTO 00000KT 10SM SCT029 OVC043 M07/M13 A3014 RMK AO2 SLP222
                 T10671133 58005 =
2017-12-18 03:18 METAR KORH 180818Z AUTO 00000KT 10SM SCT029 OVC043 M07/M14 A3015 RMK AO2
                 T10671139 =
2017-12-18 02:54 METAR KORH 180754Z AUTO 07003KT 10SM BKN027 BKN035 OVC042 M06/M13 A3016 RMK AO2
                 SLP228 T10611133 =
2017-12-18 02:46 METAR KORH 180746Z AUTO 00000KT 10SM BKN027 BKN042 OVC065 M07/M14 A3016 RMK AO2
                 T10671139 =
2017-12-18 01:54 METAR KORH 180654Z AUTO 13004KT 10SM SCT050 OVC070 M06/M14 A3016 RMK AO2 SLP229
                 T10611144 =
2017-12-18 00:54 METAR KORH 180554Z 00000KT 10SM OVC075 M08/M13 A3015 RMK AO2 SLP228 T10781133
                 11056 21078 58015 =
2017-12-17 23:54 METAR KORH 180454Z 00000KT 10SM CLR M07/M17 A3017 RMK AO2 SLP233 T10671167
                 410391106 =
2017-12-17 22:54 METAR KORH 180354Z 00000KT 10SM CLR M07/M16 A3019 RMK AO2 SLP240 T10671156 =
2017-12-17 21:54 METAR KORH 180254Z 00000KT 10SM CLR M07/M14 A3020 RMK AO2 SLP245 T10721144 58001
                 =
2017-12-17 20:54 METAR KORH 180154Z 00000KT 10SM CLR M06/M16 A3021 RMK AO2 SLP247 T10561161 =
2017-12-17 19:54 METAR KORH 180054Z 30003KT 10SM CLR M06/M16 A3021 RMK AO2 SLP250 T10561161 =
2017-12-17 18:54 METAR KORH 172354Z 32003KT 10SM CLR M06/M17 A3020 RMK AO2 SLP247 T10561167 11039
                 21061 53009 =
2017-12-17 17:54 METAR KORH 172254Z 00000KT 10SM CLR M05/M17 A3019 RMK AO2 SLP243 T10501172 =
2017-12-17 16:54 METAR KORH 172154Z 28004KT 10SM CLR M06/M17 A3018 RMK AO2 SLP241 T10561167 =
2017-12-17 15:54 METAR KORH 172054Z 29007KT 10SM CLR M04/M17 A3017 RMK AO2 SLP237 T10441172 55000
                 =

Support USWX by starting your Amazon purchase here.